Time;durP1;ratioP1;P1;durP2;ratioP2;P2;SDS_P1;SDS_P2;PMS_P1;PMS_P2;Temp;Humidity;BMP_temperature;BMP_pressure;BME280_temperature;BME280_humidity;BME280_pressure;Samples;Min_cycle;Max_cycle;Signal;HPM_P1;HPM_P2
2022/11/01 00:01:08;;;;;;;;;2.00;2.00;;;;;17.48;61.44;100784.75;6216597;22;45210;-79
2022/11/01 00:03:33;;;;;;;;;0.00;0.00;;;;;17.42;61.35;100784.03;6189170;22;45251;-79
2022/11/01 00:05:59;;;;;;;;;2.67;2.67;;;;;17.38;61.50;100789.53;6216405;22;45442;-79
2022/11/01 00:08:24;;;;;;;;;1.00;1.00;;;;;17.47;61.17;100805.19;6216415;22;45287;-79
2022/11/01 00:10:50;;;;;;;;;2.00;1.00;;;;;17.34;60.64;100812.66;6189507;22;45423;-79
2022/11/01 00:13:15;;;;;;;;;3.00;1.33;;;;;17.27;60.83;100794.28;6188791;22;45350;-79
2022/11/01 00:15:44;;;;;;;;;2.00;2.00;;;;;17.20;60.76;100815.75;6189771;22;45671;-79
2022/11/01 00:18:09;;;;;;;;;3.00;2.33;;;;;17.14;60.75;100818.59;6189026;22;47266;-79
2022/11/01 00:20:35;;;;;;;;;2.00;0.00;;;;;17.21;60.96;100837.91;6188667;22;45533;-80
2022/11/01 00:23:00;;;;;;;;;3.33;2.00;;;;;17.04;60.72;100818.94;6189230;22;45185;-79
2022/11/01 00:25:28;;;;;;;;;1.00;1.00;;;;;17.10;61.25;100837.34;6188841;22;45333;-79
2022/11/01 00:27:53;;;;;;;;;1.00;0.67;;;;;17.11;61.15;100847.97;6216179;22;45380;-78
2022/11/01 00:30:21;;;;;;;;;2.00;1.00;;;;;17.11;61.38;100855.94;6188480;22;45396;-79
2022/11/01 00:32:56;;;;;;;;;;;;;;;;;;;;;
2022/11/01 00:35:22;;;;;;;;;1.33;0.33;;;;;16.93;61.22;100830.75;6214942;22;74133;-79
2022/11/01 00:37:48;;;;;;;;;3.00;2.33;;;;;17.04;60.67;100862.34;6189447;22;46509;-81
2022/11/01 00:40:13;;;;;;;;;1.00;1.00;;;;;16.85;60.80;100839.88;6190260;22;45361;-79
2022/11/01 00:42:47;;;;;;;;;2.67;0.00;;;;;16.85;60.27;100847.84;6190506;22;45270;-79
2022/11/01 00:45:13;;;;;;;;;0.00;0.00;;;;;16.90;60.43;100875.19;6190193;22;45429;-79
2022/11/01 00:47:38;;;;;;;;;2.33;2.00;;;;;16.73;60.54;100846.34;6217429;22;46379;-80
2022/11/01 00:50:04;;;;;;;;;2.00;2.00;;;;;16.95;60.53;100883.91;6189393;22;45392;-79
2022/11/01 00:52:30;;;;;;;;;4.00;1.00;;;;;16.90;60.46;100897.31;6190341;22;45214;-79
2022/11/01 00:54:55;;;;;;;;;2.00;2.00;;;;;16.79;60.46;100878.13;6190777;22;45476;-79
2022/11/01 00:57:21;;;;;;;;;3.00;3.00;;;;;16.67;60.13;100871.31;6217934;22;46125;-78
2022/11/01 00:59:46;;;;;;;;;2.00;1.00;;;;;16.85;60.10;100903.69;6190477;22;45263;-78
2022/11/01 01:02:11;;;;;;;;;1.00;1.00;;;;;16.87;59.77;100908.03;6190113;22;45203;-79
2022/11/01 01:04:42;;;;;;;;;3.00;3.00;;;;;16.87;60.32;100915.16;6217683;22;45423;-79
2022/11/01 01:07:10;;;;;;;;;3.00;2.00;;;;;16.86;60.05;100929.34;6217645;22;45491;-79
2022/11/01 01:09:36;;;;;;;;;1.00;1.00;;;;;16.72;59.65;100919.91;6190034;22;45222;-79
2022/11/01 01:12:01;;;;;;;;;2.33;2.33;;;;;16.76;59.94;100937.56;6190152;22;45254;-78
2022/11/01 01:14:28;;;;;;;;;2.00;1.00;;;;;16.68;59.58;100939.53;6190232;22;45476;-79
2022/11/01 01:16:53;;;;;;;;;2.00;2.00;;;;;16.46;59.47;100912.59;6217694;22;45270;-79
2022/11/01 01:19:19;;;;;;;;;1.33;0.00;;;;;16.46;59.68;100928.56;6217126;22;45291;-79
2022/11/01 01:21:44;;;;;;;;;0.00;0.00;;;;;16.49;59.60;100952.41;6190328;22;45393;-79
2022/11/01 01:24:10;;;;;;;;;5.00;4.00;;;;;16.43;59.47;100951.69;6217263;22;45348;-79
2022/11/01 01:26:35;;;;;;;;;2.00;2.00;;;;;16.17;59.55;100933.72;6217427;22;46048;-79
2022/11/01 01:29:01;;;;;;;;;2.00;0.67;;;;;16.13;58.97;100943.53;6189945;22;45559;-79
2022/11/01 01:31:27;;;;;;;;;0.00;0.00;;;;;16.09;59.61;100968.41;6190416;22;45276;-79
2022/11/01 01:33:52;;;;;;;;;1.00;1.00;;;;;15.88;59.55;100959.19;6190132;22;45329;-79
2022/11/01 01:36:18;;;;;;;;;1.00;1.00;;;;;15.79;60.05;100969.97;6189490;22;47570;-78
2022/11/01 01:38:44;;;;;;;;;2.00;2.00;;;;;15.60;59.79;100956.19;6217621;22;45332;-79
2022/11/01 01:43:53;;;;;;;;;0.67;0.33;;;;;15.57;60.07;100990.75;6216921;22;45453;-79
2022/11/01 01:46:19;;;;;;;;;1.67;1.67;;;;;15.31;60.02;100965.63;6217108;22;46569;-78
2022/11/01 01:48:48;;;;;;;;;1.00;0.00;;;;;15.28;60.36;100978.94;6217479;22;45117;-79
2022/11/01 01:51:16;;;;;;;;;0.00;0.00;;;;;15.24;60.10;100987.88;6217364;22;45139;-79
2022/11/01 01:53:46;;;;;;;;;1.67;1.00;;;;;15.18;60.36;100994.19;6217184;22;45332;-79
2022/11/01 01:56:11;;;;;;;;;0.00;0.00;;;;;15.20;60.45;101007.38;6189779;22;47290;-79
2022/11/01 01:58:46;;;;;;;;;1.00;1.00;;;;;14.94;60.23;100978.69;6216921;22;45150;-79
2022/11/01 02:01:12;;;;;;;;;2.00;0.00;;;;;14.87;60.28;100985.03;6189585;22;45213;-79
2022/11/01 02:03:39;;;;;;;;;2.00;1.00;;;;;15.05;59.85;101024.47;6190147;22;45485;-79
2022/11/01 02:06:14;;;;;;;;;0.00;0.00;;;;;14.99;60.21;101029.84;6189805;22;46871;-79
2022/11/01 02:08:48;;;;;;;;;0.00;0.00;;;;;14.77;59.70;101005.50;6189639;22;45371;-79
2022/11/01 02:11:15;;;;;;;;;0.00;0.00;;;;;14.76;60.06;101011.72;6217603;22;45161;-78
2022/11/01 02:13:41;;;;;;;;;0.00;0.00;;;;;14.87;60.05;101046.00;6189629;22;45360;-79
2022/11/01 02:16:21;;;;;;;;;0.00;0.00;;;;;14.82;60.01;101035.47;6189206;22;46613;-79
2022/11/01 02:18:51;;;;;;;;;1.00;1.00;;;;;14.78;60.10;101050.56;6189588;22;45597;-78
2022/11/01 02:21:44;;;;;;;;;0.00;0.00;;;;;14.74;59.99;101040.00;6216274;22;45313;-79
2022/11/01 02:24:28;;;;;;;;;1.33;1.00;;;;;14.73;59.98;101049.75;6216911;22;45395;-79
2022/11/01 02:27:31;;;;;;;;;1.00;1.00;;;;;14.69;60.36;101052.47;6189161;22;45433;-79
2022/11/01 02:30:02;;;;;;;;;0.67;0.00;;;;;14.60;59.98;101045.53;6216589;22;45174;-79
2022/11/01 02:32:37;;;;;;;;;0.00;0.00;;;;;14.62;60.08;101057.00;6189736;22;45400;-79
2022/11/01 02:35:13;;;;;;;;;0.33;0.00;;;;;14.57;60.18;101056.19;6189489;22;45382;-79
2022/11/01 02:37:54;;;;;;;;;0.33;0.00;;;;;14.30;60.84;101028.28;6217294;22;45382;-79
2022/11/01 02:40:45;;;;;;;;;1.00;0.00;;;;;14.49;60.68;101068.63;6189629;22;45323;-79
2022/11/01 02:43:21;;;;;;;;;2.00;1.00;;;;;14.43;60.83;101066.06;6215409;22;45166;-79
2022/11/01 02:45:50;;;;;;;;;0.00;0.00;;;;;14.16;60.64;101030.25;6216600;22;45194;-79
2022/11/01 02:48:21;;;;;;;;;0.00;0.00;;;;;14.34;61.07;101075.00;6216916;22;45359;-78
2022/11/01 02:50:54;;;;;;;;;0.00;0.00;;;;;14.19;61.04;101072.56;6189610;22;45232;-79
2022/11/01 02:53:20;;;;;;;;;2.67;1.33;;;;;14.29;60.93;101092.75;6216796;22;45251;-79
2022/11/01 02:55:45;;;;;;;;;5.33;3.00;;;;;14.26;60.94;101090.13;6216402;22;45227;-79
2022/11/01 02:58:21;;;;;;;;;1.33;0.00;;;;;14.09;60.54;101071.84;6189270;22;46861;-79
2022/11/01 03:00:46;;;;;;;;;2.00;0.00;;;;;14.02;60.73;101071.03;6189874;22;45210;-79
2022/11/01 03:03:17;;;;;;;;;1.67;0.00;;;;;14.21;60.47;101099.91;6217230;22;45252;-79
2022/11/01 03:06:04;;;;;;;;;3.67;3.00;;;;;14.06;60.85;101082.44;6216640;22;45378;-79
2022/11/01 03:08:50;;;;;;;;;0.00;0.00;;;;;14.04;60.45;101092.19;6188724;22;46813;-79
2022/11/01 03:11:41;;;;;;;;;1.00;1.00;;;;;13.89;60.56;101066.78;6216723;22;45222;-79
2022/11/01 03:14:25;;;;;;;;;1.00;0.00;;;;;13.91;60.10;101080.88;6215242;22;45378;-79
2022/11/01 03:17:31;;;;;;;;;2.00;1.00;;;;;14.12;60.68;101122.97;6216737;22;45270;-79
2022/11/01 03:20:12;;;;;;;;;1.00;1.00;;;;;14.10;60.56;101122.09;6183656;22;47106;-79
2022/11/01 03:22:48;;;;;;;;;0.33;0.00;;;;;13.89;60.58;101090.59;6216731;22;45249;-79
2022/11/01 03:25:41;;;;;;;;;0.33;0.33;;;;;13.99;60.93;101115.19;6189734;22;45269;-79
2022/11/01 03:28:22;;;;;;;;;2.67;1.00;;;;;14.01;60.87;101124.88;6189313;22;45458;-79
2022/11/01 03:31:01;;;;;;;;;1.00;1.00;;;;;13.94;61.24;101135.53;6216285;22;45636;-79
2022/11/01 03:33:31;;;;;;;;;1.00;1.00;;;;;13.85;61.37;101124.16;6216580;22;45220;-79
2022/11/01 03:36:04;;;;;;;;;3.00;1.33;;;;;13.94;61.31;101159.38;6214145;22;45305;-79
2022/11/01 03:38:39;;;;;;;;;2.00;1.00;;;;;13.84;61.54;101148.88;6188624;22;45374;-79
2022/11/01 03:41:13;;;;;;;;;3.33;1.67;;;;;13.80;61.36;101143.66;6216259;22;45418;-79
2022/11/01 03:43:40;;;;;;;;;4.00;0.33;;;;;13.64;61.46;101129.69;6188788;22;46106;-78
2022/11/01 03:46:07;;;;;;;;;1.00;0.00;;;;;13.89;61.29;101180.59;6189310;22;45201;-79
2022/11/01 03:48:32;;;;;;;;;1.33;0.00;;;;;13.60;61.51;101134.13;6188936;22;45462;-78
2022/11/01 03:50:58;;;;;;;;;2.00;1.00;;;;;13.66;61.21;101151.72;6189373;22;46914;-79
2022/11/01 03:53:24;;;;;;;;;4.50;4.00;;;;;13.76;61.26;101173.66;6188753;22;45352;-79
2022/11/01 03:55:50;;;;;;;;;1.00;1.00;;;;;13.62;61.20;101157.94;6216812;22;45166;-79
2022/11/01 03:58:16;;;;;;;;;8.67;5.33;;;;;13.65;61.73;101171.13;6188568;22;45507;-79
2022/11/01 04:00:45;;;;;;;;;1.00;1.00;;;;;13.66;62.02;101184.34;6216109;22;45212;-79
2022/11/01 04:03:12;;;;;;;;;2.00;1.33;;;;;13.78;61.93;101207.16;6216087;22;45358;-78
2022/11/01 04:05:40;;;;;;;;;1.67;1.00;;;;;13.40;62.01;101144.91;6188961;22;45430;-79
2022/11/01 04:08:07;;;;;;;;;2.00;2.00;;;;;13.73;61.71;101211.63;6188631;22;45545;-79
2022/11/01 04:10:33;;;;;;;;;0.00;0.00;;;;;13.54;61.93;101183.56;6217569;22;46133;-79
2022/11/01 04:13:01;;;;;;;;;1.67;1.00;;;;;13.72;61.68;101232.81;6217453;22;45153;-79
2022/11/01 04:21:09;;;;;;;;;2.67;1.00;;;;;13.30;61.52;101182.00;6217483;22;45222;-80
2022/11/01 04:23:35;;;;;;;;;1.00;0.00;;;;;13.62;62.03;101254.03;6217444;22;45154;-79
2022/11/01 04:26:02;;;;;;;;;3.33;1.00;;;;;13.34;61.57;101199.59;6190117;22;45172;-79
2022/11/01 04:28:27;;;;;;;;;3.33;2.33;;;;;13.58;61.74;101260.25;6189793;22;45119;-79
2022/11/01 04:30:53;;;;;;;;;1.00;1.00;;;;;13.48;62.23;101252.41;6189942;22;48073;-78
2022/11/01 04:33:21;;;;;;;;;2.00;2.00;;;;;13.51;61.85;101261.19;6190257;22;45239;-79
2022/11/01 04:35:46;;;;;;;;;2.67;1.33;;;;;13.23;62.23;101215.50;6190073;22;45245;-78
2022/11/01 04:38:15;;;;;;;;;6.50;6.25;;;;;13.41;61.65;101254.22;6189010;22;45385;-79
2022/11/01 04:40:42;;;;;;;;;2.00;1.00;;;;;13.25;61.75;101229.59;6189924;22;48097;-79
2022/11/01 04:43:08;;;;;;;;;4.00;2.67;;;;;13.45;61.80;101278.00;6190082;22;45199;-78
2022/11/01 04:45:34;;;;;;;;;6.25;3.25;;;;;13.36;61.63;101266.59;6190042;22;45238;-79
2022/11/01 04:48:08;;;;;;;;;7.33;3.33;;;;;13.46;62.10;101286.78;6189617;22;45628;-78
2022/11/01 04:50:34;;;;;;;;;1.33;1.00;;;;;13.32;61.96;101260.44;6189399;22;47726;-79
2022/11/01 04:53:00;;;;;;;;;3.33;2.00;;;;;13.33;61.80;101266.59;6190023;22;45376;-79
2022/11/01 04:55:29;;;;;;;;;2.00;1.00;;;;;13.50;62.25;101301.78;6189614;22;45430;-78
2022/11/01 04:57:55;;;;;;;;;2.00;1.00;;;;;13.50;62.05;101315.00;6190038;22;45520;-79
2022/11/01 05:00:21;;;;;;;;;0.67;0.67;;;;;13.21;62.07;101257.84;6189270;22;47881;-79
2022/11/01 05:02:48;;;;;;;;;4.00;1.00;;;;;13.29;62.09;101281.63;6189703;22;45356;-79
2022/11/01 05:05:16;;;;;;;;;3.75;2.25;;;;;13.33;62.09;101298.34;6189866;22;45245;-79
2022/11/01 05:07:42;;;;;;;;;2.67;1.00;;;;;13.47;62.67;101322.91;6217317;22;45196;-79
2022/11/01 05:10:08;;;;;;;;;7.00;5.50;;;;;13.28;62.03;101289.56;6217250;22;45468;-79
2022/11/01 05:12:34;;;;;;;;;2.00;2.00;;;;;13.28;62.26;101294.84;6190219;22;45368;-79
2022/11/01 05:15:00;;;;;;;;;3.00;3.00;;;;;13.29;62.17;101293.97;6217361;22;45172;-79
2022/11/01 05:17:25;;;;;;;;;0.67;0.67;;;;;13.02;62.56;101259.72;6188867;22;45198;-79
2022/11/01 05:19:53;;;;;;;;;2.00;1.00;;;;;13.36;62.81;101317.69;6189039;22;46072;-79
2022/11/01 05:22:18;;;;;;;;;2.00;2.00;;;;;13.32;62.22;101313.34;6216835;22;45090;-78
2022/11/01 05:24:44;;;;;;;;;3.00;1.00;;;;;13.27;62.42;101308.97;6217381;22;45359;-79
2022/11/01 05:27:10;;;;;;;;;2.00;1.00;;;;;13.41;62.72;101333.56;6189579;22;45344;-78
2022/11/01 05:29:37;;;;;;;;;1.00;1.00;;;;;13.30;62.48;101314.22;6216889;22;46099;-78
2022/11/01 05:32:03;;;;;;;;;0.00;0.00;;;;;13.33;62.64;101320.38;6190407;22;45459;-79
2022/11/01 05:34:28;;;;;;;;;2.67;2.00;;;;;13.20;63.10;101303.69;6217439;22;45299;-79
2022/11/01 05:36:54;;;;;;;;;3.00;2.00;;;;;13.23;62.91;101319.53;6190142;22;45403;-79
2022/11/01 05:39:19;;;;;;;;;2.75;1.00;;;;;13.36;63.28;101351.22;6189135;22;47320;-79
2022/11/01 05:41:45;;;;;;;;;4.67;2.00;;;;;13.13;62.90;101315.16;6217271;22;45087;-79
2022/11/01 05:44:10;;;;;;;;;2.33;1.33;;;;;13.33;63.08;101364.44;6188869;22;45269;-78
2022/11/01 05:46:36;;;;;;;;;1.67;1.00;;;;;13.23;63.29;101353.91;6190075;22;45235;-79
2022/11/01 05:49:01;;;;;;;;;2.33;1.00;;;;;13.24;63.36;101352.13;6217163;22;45230;-78
2022/11/01 05:51:30;;;;;;;;;2.67;1.00;;;;;13.21;63.88;101353.03;6188894;22;45219;-79
2022/11/01 05:53:55;;;;;;;;;3.00;1.00;;;;;13.00;64.00;101330.19;6189966;22;45401;-79
2022/11/01 05:56:23;;;;;;;;;2.00;1.00;;;;;12.92;63.62;101315.28;6189868;22;45327;-79
2022/11/01 05:58:48;;;;;;;;;1.33;0.67;;;;;13.12;63.89;101355.69;6189751;22;46165;-78
2022/11/01 06:01:16;;;;;;;;;2.33;1.33;;;;;12.99;64.11;101341.66;6189576;22;45591;-79
2022/11/01 06:03:42;;;;;;;;;1.33;1.33;;;;;13.14;63.99;101368.91;6189900;22;45204;-79
2022/11/01 06:06:08;;;;;;;;;1.33;1.00;;;;;13.11;63.98;101368.94;6189540;22;45294;-79
2022/11/01 06:08:34;;;;;;;;;3.25;2.50;;;;;13.02;64.50;101352.22;6189775;22;45717;-78
2022/11/01 06:11:05;;;;;;;;;3.67;2.33;;;;;12.86;64.33;101339.97;6189835;22;45652;-79
2022/11/01 06:13:32;;;;;;;;;3.00;2.00;;;;;13.07;64.05;101389.22;6189768;22;45194;-79
2022/11/01 06:16:15;;;;;;;;;2.00;2.00;;;;;12.71;64.59;101308.31;6189846;22;46008;-78
2022/11/01 06:18:40;;;;;;;;;3.00;1.00;;;;;12.95;64.55;101355.75;6188554;22;47661;-78
2022/11/01 06:21:06;;;;;;;;;4.00;1.00;;;;;12.91;64.27;101347.84;6189317;22;45887;-79
2022/11/01 06:23:34;;;;;;;;;3.67;2.33;;;;;12.97;64.41;101377.78;6190075;22;45192;-79
2022/11/01 06:26:02;;;;;;;;;2.00;2.00;;;;;13.02;64.70;101381.31;6189950;22;45308;-79
2022/11/01 06:28:27;;;;;;;;;12.25;12.25;;;;;12.88;64.84;101355.78;6216560;22;45858;-79
2022/11/01 06:31:02;;;;;;;;;1.33;0.67;;;;;12.97;64.64;101391.00;6188601;22;45294;-79
2022/11/01 06:33:29;;;;;;;;;3.00;0.67;;;;;12.64;64.57;101343.53;6189874;22;45484;-80
2022/11/01 06:35:54;;;;;;;;;4.33;1.00;;;;;12.74;64.96;101354.06;6216863;22;45431;-79
2022/11/01 06:38:20;;;;;;;;;7.00;2.67;;;;;12.70;64.90;101354.09;6189224;22;46729;-79
2022/11/01 06:40:48;;;;;;;;;4.00;2.00;;;;;12.94;65.16;101396.31;6189737;22;45164;-79
2022/11/01 06:43:17;;;;;;;;;2.67;2.33;;;;;12.72;64.68;101357.59;6216714;22;45150;-78
2022/11/01 06:45:42;;;;;;;;;5.00;2.75;;;;;12.96;64.84;101404.22;6189269;22;45422;-79
2022/11/01 06:48:15;;;;;;;;;1.00;1.00;;;;;12.71;65.05;101358.50;6216957;22;45370;-80
2022/11/01 06:50:46;;;;;;;;;2.00;2.00;;;;;12.75;64.87;101369.06;6216978;22;45355;-79
2022/11/01 06:53:11;;;;;;;;;1.33;1.00;;;;;12.58;65.12;101341.78;6216419;22;45905;-78
2022/11/01 06:55:38;;;;;;;;;2.00;2.00;;;;;12.93;65.07;101405.09;6216142;22;45132;-78
2022/11/01 06:58:04;;;;;;;;;5.33;1.00;;;;;12.99;64.63;101420.06;6216311;22;45415;-79
2022/11/01 07:00:29;;;;;;;;;1.33;1.33;;;;;12.78;64.93;101381.38;6189441;22;45464;-79
2022/11/01 07:03:00;;;;;;;;;4.00;2.00;;;;;12.94;64.84;101404.25;6214761;22;45265;-78
2022/11/01 07:05:27;;;;;;;;;1.33;1.00;;;;;12.72;64.88;101376.09;6189420;22;45410;-79
2022/11/01 07:07:55;;;;;;;;;2.00;2.00;;;;;12.90;64.84;101406.88;6216240;22;45364;-78
2022/11/01 07:10:21;;;;;;;;;2.00;1.00;;;;;12.94;64.75;101411.28;6188502;22;45403;-78
2022/11/01 07:12:47;;;;;;;;;1.00;1.00;;;;;12.93;64.66;101404.22;6189041;22;45425;-79
2022/11/01 07:15:12;;;;;;;;;3.25;3.25;;;;;12.88;64.99;101406.88;6188772;22;45440;-78
2022/11/01 07:17:37;;;;;;;;;2.00;1.33;;;;;13.01;64.98;101434.16;6216788;22;45706;-78
2022/11/01 07:20:03;;;;;;;;;2.00;1.00;;;;;13.04;65.31;101442.06;6189197;22;45278;-78
2022/11/01 07:22:29;;;;;;;;;1.33;1.00;;;;;12.94;65.43;101422.75;6216907;22;45234;-78
2022/11/01 07:24:54;;;;;;;;;1.00;1.00;;;;;12.86;65.13;101400.75;6216287;22;45103;-78
2022/11/01 07:27:20;;;;;;;;;3.50;2.00;;;;;12.77;64.84;101406.91;6216416;22;46036;-78
2022/11/01 07:29:45;;;;;;;;;7.25;3.25;;;;;12.84;65.37;101391.06;6188997;22;45127;-78
2022/11/01 07:32:50;;;;;;;;;3.00;3.00;;;;;13.15;65.04;101449.97;6216987;22;45219;-82
2022/11/01 07:35:15;;;;;;;;;4.00;3.00;;;;;13.00;64.96;101419.19;6189544;22;45712;-79
2022/11/01 07:37:41;;;;;;;;;1.75;1.00;;;;;13.05;65.39;101437.69;6216385;22;45285;-79
2022/11/01 07:40:17;;;;;;;;;;;;;;;;;;;;;
2022/11/01 07:42:46;;;;;;;;;1.75;0.25;;;;;13.19;65.42;101443.81;6216181;22;68922;-78
2022/11/01 07:45:17;;;;;;;;;0.67;0.67;;;;;12.92;64.78;101398.06;6215073;22;45495;-80
2022/11/01 07:47:56;;;;;;;;;2.67;0.00;;;;;13.17;65.24;101441.16;6214951;22;46807;-79
2022/11/01 07:50:30;;;;;;;;;3.00;1.00;;;;;13.03;65.15;101408.59;6217402;22;45402;-79
2022/11/01 07:53:05;;;;;;;;;2.67;1.00;;;;;13.42;64.79;101467.56;6189607;22;45532;-81
2022/11/01 07:55:48;;;;;;;;;4.00;1.00;;;;;13.46;64.80;101464.88;6189960;22;45423;-79
2022/11/01 07:58:37;;;;;;;;;3.33;2.00;;;;;13.15;65.05;101415.59;6189378;22;47057;-80
2022/11/01 08:01:01;;;;;;;;;4.00;3.00;;;;;13.44;64.73;101469.34;6216350;22;45288;-78
2022/11/01 08:03:31;;;;;;;;;3.00;3.00;;;;;13.47;64.74;101471.06;6217622;22;45314;-79
2022/11/01 08:06:22;;;;;;;;;3.00;1.00;;;;;13.54;64.50;101486.03;6189925;22;45799;-79
2022/11/01 08:08:48;;;;;;;;;3.00;3.00;;;;;13.56;64.61;101489.56;6189522;22;46110;-78
2022/11/01 08:11:13;;;;;;;;;2.67;2.67;;;;;13.54;64.43;101483.38;6190145;22;46002;-77
2022/11/01 08:13:38;;;;;;;;;4.00;2.00;;;;;13.36;64.37;101449.94;6190212;22;45275;-77
2022/11/01 08:16:04;;;;;;;;;3.33;1.00;;;;;13.48;64.00;101467.53;6190109;22;45463;-78
2022/11/01 08:18:30;;;;;;;;;2.00;1.00;;;;;13.42;64.32;101451.69;6216701;22;45242;-79
2022/11/01 08:21:17;;;;;;;;;3.25;2.00;;;;;13.35;64.19;101431.44;6189288;22;45240;-80
2022/11/01 08:23:44;;;;;;;;;2.00;0.67;;;;;13.68;64.22;101486.88;6189440;22;45428;-77
2022/11/01 08:26:13;;;;;;;;;1.67;1.67;;;;;13.50;63.89;101443.72;6217118;22;45476;-79
2022/11/01 08:28:49;;;;;;;;;1.50;0.75;;;;;13.60;63.97;101453.38;6216303;22;45418;-80
2022/11/01 08:31:20;;;;;;;;;3.00;2.25;;;;;13.54;63.75;101435.75;6188242;22;45130;-80
2022/11/01 08:33:46;;;;;;;;;5.00;2.00;;;;;13.77;63.41;101459.47;6217007;22;45275;-78
2022/11/01 08:36:11;;;;;;;;;4.00;3.00;;;;;13.93;63.40;101472.63;6217145;22;45396;-78
2022/11/01 08:38:37;;;;;;;;;2.33;2.33;;;;;13.87;63.62;101454.97;6189408;22;47144;-79
2022/11/01 08:41:02;;;;;;;;;5.00;2.67;;;;;13.95;63.34;101470.81;6189842;22;45307;-79
2022/11/01 08:43:28;;;;;;;;;0.67;0.33;;;;;13.89;63.31;101442.63;6217297;22;45351;-79
2022/11/01 08:45:53;;;;;;;;;3.00;1.00;;;;;13.83;63.19;101425.03;6189627;22;45372;-79
2022/11/01 08:52:21;;;;;;;;;1.67;1.00;;;;;13.92;62.67;101424.06;6022301;23;45501;-80
2022/11/01 08:54:52;;;;;;;;;3.33;2.00;;;;;14.04;62.38;101428.44;6042109;23;45372;-80
2022/11/01 08:57:17;;;;;;;;;2.00;1.33;;;;;14.28;62.47;101470.63;6160077;22;45372;-78
2022/11/01 08:59:42;;;;;;;;;1.00;1.00;;;;;14.28;62.37;101470.63;6216709;22;46036;-78
2022/11/01 09:02:10;;;;;;;;;1.67;1.67;;;;;14.13;62.24;101429.22;6189494;22;45219;-78
2022/11/01 09:04:35;;;;;;;;;3.33;2.67;;;;;14.36;61.94;101459.09;6217177;22;45260;-79
2022/11/01 09:07:01;;;;;;;;;5.33;1.33;;;;;14.23;61.77;101443.28;6216683;22;45344;-79
2022/11/01 09:09:26;;;;;;;;;3.00;2.33;;;;;14.47;61.74;101491.66;6188742;22;47033;-79
2022/11/01 09:11:52;;;;;;;;;6.00;2.00;;;;;14.37;61.40;101455.53;6216764;22;45413;-79
2022/11/01 09:14:23;;;;;;;;;1.33;1.33;;;;;14.50;61.53;101473.09;6188745;22;45300;-79
2022/11/01 09:16:56;;;;;;;;;1.33;1.00;;;;;14.66;61.52;101489.78;6189430;22;45281;-79
2022/11/01 09:19:25;;;;;;;;;2.67;1.33;;;;;14.43;61.64;101445.75;6173722;22;48001;-79
2022/11/01 09:21:50;;;;;;;;;2.00;2.00;;;;;14.76;61.29;101491.47;6188876;22;45519;-79
2022/11/01 09:24:16;;;;;;;;;2.33;2.33;;;;;14.66;60.93;101464.16;6216606;22;45874;-79
2022/11/01 09:26:43;;;;;;;;;1.33;1.00;;;;;14.58;61.11;101443.91;6216742;22;45296;-79
2022/11/01 09:29:09;;;;;;;;;2.00;1.00;;;;;14.85;61.17;101486.06;6189048;22;46501;-79
2022/11/01 09:31:35;;;;;;;;;2.00;1.00;;;;;14.88;60.75;101498.41;6189177;22;45212;-79
2022/11/01 09:34:01;;;;;;;;;4.00;2.00;;;;;14.91;60.70;101479.81;6189542;22;45215;-78
2022/11/01 09:39:20;;;;;;;;;3.00;2.33;;;;;14.89;60.65;101458.66;6188949;22;45421;-77
2022/11/01 09:41:58;;;;;;;;;2.00;2.00;;;;;15.13;60.55;101489.34;6189141;22;45174;-80
2022/11/01 09:44:28;;;;;;;;;2.00;1.00;;;;;15.22;59.90;101505.13;6190744;22;45218;-79
2022/11/01 09:47:06;;;;;;;;;4.00;0.67;;;;;15.41;60.10;101523.50;6216346;22;45336;-78
2022/11/01 09:49:36;;;;;;;;;2.00;2.00;;;;;15.45;59.84;101509.31;6188299;22;47487;-78
2022/11/01 09:52:06;;;;;;;;;1.00;1.00;;;;;15.43;59.57;101488.09;6187834;22;45781;-79
2022/11/01 09:54:34;;;;;;;;;3.67;1.67;;;;;15.68;59.53;101518.78;6188690;22;45195;-78
2022/11/01 09:57:15;;;;;;;;;7.00;1.00;;;;;15.74;59.24;101506.31;6216442;22;45376;-78
2022/11/01 09:59:43;;;;;;;;;2.00;1.00;;;;;15.95;59.03;101529.06;6188348;22;47312;-79
2022/11/01 10:02:35;;;;;;;;;5.33;3.33;;;;;15.98;58.46;101517.53;6216176;22;45158;-78
2022/11/01 10:05:14;;;;;;;;;1.00;1.00;;;;;16.03;58.74;101508.59;6189070;22;45225;-79
2022/11/01 10:07:56;;;;;;;;;1.00;1.00;;;;;16.25;58.80;101543.72;6216337;22;45382;-78
2022/11/01 10:10:47;;;;;;;;;2.00;1.00;;;;;16.37;58.05;101529.38;6188698;22;47038;-78
2022/11/01 10:13:39;;;;;;;;;0.67;0.33;;;;;16.52;57.74;101530.91;6188372;22;45551;-79
2022/11/01 10:16:13;;;;;;;;;1.33;1.33;;;;;16.57;57.49;101528.16;6217006;22;45206;-78
2022/11/01 10:18:44;;;;;;;;;5.33;3.00;;;;;16.73;57.33;101524.34;6216377;22;45175;-79
2022/11/01 10:21:14;;;;;;;;;2.00;2.00;;;;;16.76;56.69;101514.56;6188376;22;47043;-79
2022/11/01 10:24:06;;;;;;;;;2.67;1.67;;;;;17.03;56.66;101532.78;6187900;22;45735;-79
2022/11/01 10:27:34;;;;;;;;;;;;;;;;;;;;;
2022/11/01 10:34:30;;;;;;;;;2.33;1.00;;;;;17.82;54.95;101530.34;5955497;23;46443;-78
2022/11/01 10:37:30;;;;;;;;;3.67;2.00;;;;;18.32;54.28;101530.16;5950548;23;45272;-80
2022/11/01 10:40:31;;;;;;;;;5.33;2.00;;;;;19.96;53.82;101518.69;5951438;23;45425;-80
2022/11/01 10:43:37;;;;;;;;;3.67;1.33;;;;;22.03;50.82;101502.66;5950525;23;45514;-79
2022/11/01 10:46:41;;;;;;;;;1.00;1.00;;;;;23.95;47.66;101508.72;6050079;23;46752;-78
2022/11/01 10:49:26;;;;;;;;;3.00;2.33;;;;;25.65;46.25;101501.88;6040094;23;45247;-78
2022/11/01 10:52:02;;;;;;;;;3.00;1.67;;;;;26.86;42.20;101510.31;6065266;23;45482;-79
2022/11/01 10:54:33;;;;;;;;;1.33;1.33;;;;;27.52;41.36;101500.03;6040149;23;45309;-78
2022/11/01 10:57:11;;;;;;;;;1.33;1.33;;;;;28.24;39.19;101498.13;6089267;22;46831;-78
2022/11/01 10:59:45;;;;;;;;;1.00;1.00;;;;;28.98;37.21;101505.75;6216487;22;45191;-78
2022/11/01 11:02:44;;;;;;;;;1.00;1.00;;;;;29.41;35.75;101505.47;6188718;22;45188;-78
2022/11/01 11:05:35;;;;;;;;;;;;;;;;;;;;;
2022/11/01 11:08:06;;;;;;;;;4.33;1.00;;;;;30.42;32.82;101507.25;6215036;22;73343;-78
2022/11/01 11:10:44;;;;;;;;;;;;;;;;;;;;;
2022/11/01 11:13:20;;;;;;;;;0.67;0.00;;;;;30.67;31.59;101506.25;6214568;22;68852;-79
2022/11/01 11:15:55;;;;;;;;;1.00;1.00;;;;;30.88;30.83;101491.03;6188709;22;45219;-79
2022/11/01 11:18:34;;;;;;;;;0.00;0.00;;;;;30.80;30.62;101501.63;6187519;22;47103;-79
2022/11/01 11:21:04;;;;;;;;;3.67;2.67;;;;;30.59;30.14;101508.72;6188506;22;45191;-79
2022/11/01 11:23:33;;;;;;;;;0.67;0.67;;;;;30.01;29.35;101500.31;6188861;22;45237;-78
2022/11/01 11:26:34;;;;;;;;;;;;;;;;;;;;;
2022/11/01 11:29:35;;;;;;;;;1.67;1.00;;;;;26.91;31.87;101505.50;6214857;22;74626;-79
2022/11/01 11:32:07;;;;;;;;;1.00;0.00;;;;;25.67;32.70;101512.59;6188939;22;45356;-79
2022/11/01 11:34:35;;;;;;;;;1.00;1.00;;;;;25.77;34.41;101507.56;6188752;22;45220;-79
2022/11/01 11:37:17;;;;;;;;;1.00;1.00;;;;;26.68;32.96;101501.50;6215898;22;45218;-78
2022/11/01 11:40:22;;;;;;;;;1.00;1.00;;;;;26.44;33.32;101479.47;6188094;22;48327;-79
2022/11/01 11:43:35;;;;;;;;;2.00;0.67;;;;;26.21;33.11;101485.34;6145324;22;45253;-79
2022/11/01 11:46:22;;;;;;;;;0.67;0.00;;;;;25.13;33.64;101485.81;6187072;22;45220;-79
2022/11/01 11:49:16;;;;;;;;;2.00;1.33;;;;;24.24;34.57;101484.03;6187217;22;45179;-79
2022/11/01 11:52:01;;;;;;;;;1.33;1.00;;;;;23.78;35.11;101477.22;6187396;22;47631;-80
2022/11/01 11:54:36;;;;;;;;;3.33;2.67;;;;;23.33;36.06;101447.94;6187587;22;45419;-78
2022/11/01 11:57:20;;;;;;;;;2.00;1.00;;;;;22.98;36.71;101479.94;6187550;22;45512;-77
2022/11/01 11:59:54;;;;;;;;;1.00;0.00;;;;;22.59;37.34;101501.31;6214485;22;45082;-77
2022/11/01 12:02:26;;;;;;;;;0.67;0.67;;;;;22.11;37.75;101483.56;6212468;22;47889;-77
2022/11/01 12:04:59;;;;;;;;;1.00;1.00;;;;;21.89;38.02;101478.16;6187200;22;45659;-78
2022/11/01 12:07:29;;;;;;;;;2.67;0.67;;;;;21.77;38.63;101469.66;6188211;22;45171;-77
2022/11/01 12:09:57;;;;;;;;;3.33;2.67;;;;;21.83;39.32;101462.31;6187592;22;45154;-79
2022/11/01 12:12:26;;;;;;;;;1.00;1.00;;;;;22.22;39.04;101476.84;6187983;22;47870;-80